Time;durP1;ratioP1;P1;durP2;ratioP2;P2;SDS_P1;SDS_P2;PMS_P1;PMS_P2;Temp;Humidity;BMP_temperature;BMP_pressure;BME280_temperature;BME280_humidity;BME280_pressure;Samples;Min_cycle;Max_cycle;Signal;HPM_P1;HPM_P2
2023/03/26 00:01:07;;;;;;;8.35;6.88;;;;;;;7.53;89.41;95585.06;4945921;29;20073;-71
2023/03/26 00:03:33;;;;;;;11.30;6.90;;;;;;;7.57;90.06;95583.84;4950963;29;20038;-71
2023/03/26 00:06:04;;;;;;;10.55;6.78;;;;;;;7.57;91.10;95582.06;4950074;29;20032;-71
2023/03/26 00:08:30;;;;;;;9.30;6.25;;;;;;;7.58;91.66;95572.41;4936966;29;20056;-71
2023/03/26 00:10:55;;;;;;;7.07;5.18;;;;;;;7.73;90.63;95580.78;4942888;29;20032;-71
2023/03/26 00:13:21;;;;;;;9.95;5.07;;;;;;;7.73;91.13;95575.53;4945319;29;20024;-70
2023/03/26 00:15:47;;;;;;;11.45;6.15;;;;;;;7.63;90.72;95578.13;4945247;29;20218;-71
2023/03/26 00:18:12;;;;;;;9.20;5.28;;;;;;;7.67;89.84;95569.03;4951582;29;20031;-71
2023/03/26 00:20:40;;;;;;;8.48;5.63;;;;;;;7.60;90.30;95580.97;4951385;29;20145;-71
2023/03/26 00:23:06;;;;;;;7.07;4.78;;;;;;;7.50;92.79;95595.78;4947351;29;20397;-71
2023/03/26 00:25:33;;;;;;;5.60;4.40;;;;;;;7.45;92.44;95602.25;4953469;29;20031;-71
2023/03/26 00:27:59;;;;;;;5.93;4.30;;;;;;;7.43;90.05;95605.94;4950902;29;20312;-71
2023/03/26 00:30:25;;;;;;;12.75;9.38;;;;;;;7.45;90.10;95619.72;4956941;29;20028;-71
2023/03/26 00:32:50;;;;;;;8.90;6.60;;;;;;;7.50;90.46;95627.22;4948915;29;20055;-71
2023/03/26 00:35:16;;;;;;;8.75;5.55;;;;;;;7.52;91.05;95625.31;4950294;29;20028;-71
2023/03/26 00:37:42;;;;;;;7.13;4.75;;;;;;;7.52;90.68;95635.78;4948750;29;20037;-71
2023/03/26 00:40:09;;;;;;;6.18;4.10;;;;;;;7.45;90.74;95641.53;4951911;29;20119;-71
2023/03/26 00:42:36;;;;;;;8.32;4.00;;;;;;;7.47;88.45;95635.34;4952132;29;20035;-71
2023/03/26 00:45:02;;;;;;;11.73;7.20;;;;;;;7.45;88.96;95631.06;4956350;29;20027;-71
2023/03/26 00:47:28;;;;;;;9.40;6.35;;;;;;;7.41;89.96;95628.81;4946689;29;20056;-71
2023/03/26 00:49:54;;;;;;;7.22;5.55;;;;;;;7.41;89.77;95618.31;4949295;29;20174;-71
2023/03/26 00:52:22;;;;;;;6.18;5.18;;;;;;;7.42;89.97;95618.22;4953637;29;20570;-71
2023/03/26 00:54:50;;;;;;;8.27;5.82;;;;;;;7.46;90.98;95621.41;4952886;29;20039;-70
2023/03/26 00:57:17;;;;;;;9.50;5.30;;;;;;;7.47;91.45;95622.25;4944597;29;20226;-71
2023/03/26 00:59:42;;;;;;;7.47;4.65;;;;;;;7.46;90.96;95624.00;4952279;29;20444;-71
2023/03/26 01:02:15;;;;;;;6.53;4.57;;;;;;;7.43;91.11;95613.78;4951788;29;20065;-71
2023/03/26 01:04:44;;;;;;;6.97;5.03;;;;;;;7.38;91.09;95614.16;4949813;29;20019;-71
2023/03/26 01:07:15;;;;;;;5.95;4.50;;;;;;;7.36;90.78;95610.81;4953564;28;20035;-71
2023/03/26 01:09:49;;;;;;;8.75;4.13;;;;;;;7.40;90.92;95606.19;4956170;29;20129;-71
2023/03/26 01:12:18;;;;;;;5.88;4.28;;;;;;;7.39;91.50;95607.97;4956642;29;20054;-70
2023/03/26 01:14:49;;;;;;;6.57;4.10;;;;;;;7.39;92.24;95596.66;4956947;29;20023;-71
2023/03/26 01:17:14;;;;;;;6.72;3.72;;;;;;;7.38;92.58;95590.59;4951816;29;20035;-70
2023/03/26 01:19:47;;;;;;;6.80;3.60;;;;;;;7.41;92.71;95579.88;4948464;29;20070;-71
2023/03/26 01:22:23;;;;;;;6.18;3.78;;;;;;;7.42;92.34;95575.47;4943024;29;20035;-70
2023/03/26 01:24:55;;;;;;;5.53;3.80;;;;;;;7.39;92.34;95575.72;4953384;29;20032;-71
2023/03/26 01:27:47;;;;;;;9.75;3.90;;;;;;;7.31;92.63;95581.56;4938020;29;20126;-71
2023/03/26 01:30:32;;;;;;;5.78;3.72;;;;;;;7.35;92.44;95582.16;4947085;29;20027;-70
2023/03/26 01:33:03;;;;;;;4.68;3.80;;;;;;;7.36;92.23;95584.63;4955860;29;20483;-71
2023/03/26 01:35:55;;;;;;;6.38;3.40;;;;;;;7.34;93.90;95588.34;4956592;29;20027;-71
2023/03/26 01:38:29;;;;;;;7.82;3.65;;;;;;;7.31;93.68;95568.47;4954562;29;20023;-71
2023/03/26 01:41:09;;;;;;;6.28;3.60;;;;;;;7.31;94.67;95558.84;4956414;29;20031;-71
2023/03/26 01:43:41;;;;;;;4.90;3.30;;;;;;;7.29;95.11;95567.78;4944325;29;20074;-71
2023/03/26 01:46:10;;;;;;;3.92;3.22;;;;;;;7.41;93.61;95545.81;4944093;29;20063;-70
2023/03/26 01:48:38;;;;;;;6.53;3.80;;;;;;;7.50;91.04;95536.34;4956165;29;20146;-70
2023/03/26 01:51:05;;;;;;;6.03;3.85;;;;;;;7.59;89.83;95547.88;4954890;29;20042;-70
2023/03/26 01:53:33;;;;;;;5.97;3.80;;;;;;;7.39;91.56;95560.00;4945999;29;20039;-70
2023/03/26 01:56:05;;;;;;;6.95;4.65;;;;;;;7.25;93.13;95546.22;4943781;29;20039;-70
2023/03/26 01:58:58;;;;;;;6.53;3.83;;;;;;;7.42;90.99;95547.50;4951509;29;20035;-71
2023/03/26 02:01:44;;;;;;;4.53;3.88;;;;;;;7.43;90.60;95540.44;4949873;29;20443;-71
2023/03/26 02:04:25;;;;;;;5.95;3.97;;;;;;;7.30;92.96;95548.47;4954086;29;20046;-70
2023/03/26 02:07:04;;;;;;;5.82;4.10;;;;;;;7.25;93.60;95541.00;4944111;29;20024;-71
2023/03/26 02:09:49;;;;;;;6.25;4.03;;;;;;;7.20;94.29;95532.69;4941217;29;20059;-71
2023/03/26 02:12:15;;;;;;;7.65;4.18;;;;;;;7.24;95.33;95525.41;4938882;29;20025;-71
2023/03/26 02:14:42;;;;;;;4.97;4.35;;;;;;;7.19;95.92;95528.41;4939311;29;20596;-71
2023/03/26 02:17:09;;;;;;;5.63;4.15;;;;;;;7.19;94.86;95510.06;4957227;28;20019;-71
2023/03/26 02:19:36;;;;;;;4.78;3.28;;;;;;;7.23;93.32;95513.28;4960429;29;20070;-70
2023/03/26 02:22:02;;;;;;;6.25;3.67;;;;;;;7.24;92.11;95501.84;4959018;29;20035;-70
2023/03/26 02:24:27;;;;;;;7.63;3.38;;;;;;;7.26;91.97;95511.22;4959457;29;20109;-71
2023/03/26 02:26:53;;;;;;;5.95;3.63;;;;;;;7.26;93.01;95516.47;4957897;29;20125;-71
2023/03/26 02:29:19;;;;;;;4.60;3.80;;;;;;;7.23;96.06;95518.53;4948680;29;20042;-71
2023/03/26 02:31:47;;;;;;;5.75;3.70;;;;;;;7.40;92.54;95515.31;4949295;29;20019;-70
2023/03/26 02:34:13;;;;;;;7.25;3.60;;;;;;;7.78;90.12;95520.97;4947541;29;20523;-70
2023/03/26 02:36:41;;;;;;;6.65;4.90;;;;;;;7.52;91.51;95539.72;4959409;29;20061;-70
2023/03/26 02:39:10;;;;;;;6.05;4.13;;;;;;;7.43;91.58;95516.88;4955849;29;20047;-70
2023/03/26 02:41:39;;;;;;;4.63;3.85;;;;;;;7.30;93.33;95522.28;4957734;29;20543;-70
2023/03/26 02:44:05;;;;;;;4.88;3.20;;;;;;;7.35;94.29;95530.59;4955895;29;20023;-71
2023/03/26 02:46:33;;;;;;;6.05;4.13;;;;;;;7.37;93.53;95546.19;4950542;29;20079;-71
2023/03/26 02:48:59;;;;;;;13.10;3.97;;;;;;;7.23;94.92;95529.00;4955567;29;20390;-71
2023/03/26 02:51:24;;;;;;;8.43;4.05;;;;;;;7.14;96.38;95522.72;4950663;29;20031;-71
2023/03/26 02:53:52;;;;;;;4.60;2.92;;;;;;;7.37;93.21;95525.25;4957862;29;20019;-71
2023/03/26 02:56:18;;;;;;;3.63;2.97;;;;;;;7.25;95.25;95508.75;4950722;29;20042;-70
2023/03/26 02:58:45;;;;;;;6.90;3.33;;;;;;;7.18;96.85;95516.28;4955520;28;20476;-72
2023/03/26 03:01:11;;;;;;;4.03;3.63;;;;;;;7.14;99.20;95507.81;4959395;29;20735;-71
2023/03/26 03:03:37;;;;;;;3.08;2.80;;;;;;;7.51;93.77;95505.75;4959498;29;20038;-70
2023/03/26 03:06:03;;;;;;;6.05;2.85;;;;;;;7.31;94.51;95503.00;4959433;29;20031;-71
2023/03/26 03:08:28;;;;;;;9.60;5.63;;;;;;;7.21;98.71;95499.50;4934544;29;20024;-70
2023/03/26 03:11:00;;;;;;;7.32;5.47;;;;;;;7.19;99.02;95498.78;4954894;29;20035;-71
2023/03/26 03:13:26;;;;;;;6.18;3.72;;;;;;;7.14;99.99;95486.88;4946135;29;20118;-70
2023/03/26 03:15:52;;;;;;;4.53;4.05;;;;;;;7.17;99.17;95475.34;4959276;29;20027;-71
2023/03/26 03:18:17;;;;;;;8.02;3.10;;;;;;;7.23;97.65;95464.34;4940892;29;20031;-71
2023/03/26 03:20:43;;;;;;;5.63;3.17;;;;;;;7.24;98.00;95465.19;4940368;29;20032;-71
2023/03/26 03:23:09;;;;;;;4.82;3.17;;;;;;;7.21;98.58;95447.13;4944231;29;20019;-71
2023/03/26 03:25:37;;;;;;;3.95;2.58;;;;;;;7.24;98.28;95436.38;4949083;29;20063;-70
2023/03/26 03:28:03;;;;;;;3.30;2.83;;;;;;;7.26;97.50;95426.63;4953005;28;20034;-71
2023/03/26 03:30:28;;;;;;;6.32;3.03;;;;;;;7.27;97.57;95434.31;4954910;29;20591;-71
2023/03/26 03:32:53;;;;;;;5.10;2.97;;;;;;;7.30;96.52;95441.13;4958439;29;20039;-70
2023/03/26 03:35:19;;;;;;;4.63;2.72;;;;;;;7.36;95.49;95432.72;4953574;29;20147;-71
2023/03/26 03:37:44;;;;;;;2.72;2.50;;;;;;;7.44;92.86;95427.69;4929879;29;20015;-70
2023/03/26 03:40:10;;;;;;;2.83;2.47;;;;;;;7.61;89.95;95433.28;4958664;29;20130;-71
2023/03/26 03:42:36;;;;;;;3.67;2.72;;;;;;;7.66;89.17;95439.00;4956985;29;20023;-71
2023/03/26 03:45:05;;;;;;;3.40;2.58;;;;;;;7.62;94.87;95439.38;4948532;29;20075;-70
2023/03/26 03:47:31;;;;;;;4.20;2.55;;;;;;;7.54;95.88;95425.13;4943610;29;20058;-71
2023/03/26 03:49:59;;;;;;;2.92;2.40;;;;;;;7.50;96.53;95413.22;4957944;29;20460;-70
2023/03/26 03:52:26;;;;;;;4.30;2.33;;;;;;;7.46;98.54;95406.59;4958154;29;20114;-70
2023/03/26 03:54:53;;;;;;;8.15;2.72;;;;;;;7.52;98.18;95410.50;4958010;29;20023;-71
2023/03/26 03:57:20;;;;;;;5.30;3.45;;;;;;;7.67;96.84;95417.06;4957833;29;20026;-70
2023/03/26 03:59:47;;;;;;;7.35;3.30;;;;;;;7.44;97.11;95411.13;4958568;29;20082;-70
2023/03/26 04:02:12;;;;;;;6.75;3.70;;;;;;;7.27;99.35;95404.72;4957585;29;20019;-71
2023/03/26 04:04:38;;;;;;;7.45;3.78;;;;;;;7.10;99.47;95412.19;4947620;29;20023;-70
2023/03/26 04:07:04;;;;;;;6.50;3.15;;;;;;;7.01;97.65;95398.06;4954447;29;20046;-70
2023/03/26 04:09:30;;;;;;;5.22;3.10;;;;;;;7.12;97.14;95418.13;4954540;29;20023;-70
2023/03/26 04:11:55;;;;;;;3.42;3.03;;;;;;;7.17;97.52;95415.94;4957437;29;20090;-70
2023/03/26 04:14:21;;;;;;;4.68;3.10;;;;;;;7.17;96.95;95425.59;4953364;29;20032;-70
2023/03/26 04:16:47;;;;;;;3.60;3.22;;;;;;;7.22;98.48;95422.59;4942579;29;20162;-71
2023/03/26 04:19:14;;;;;;;9.80;3.75;;;;;;;7.13;100.00;95438.09;4943351;29;20532;-70
2023/03/26 04:21:41;;;;;;;5.05;3.70;;;;;;;7.01;100.00;95432.09;4954395;29;20113;-70
2023/03/26 04:24:07;;;;;;;5.35;3.67;;;;;;;7.12;100.00;95412.06;4937596;29;20411;-70
2023/03/26 04:26:34;;;;;;;5.00;3.70;;;;;;;7.05;100.00;95403.88;4956615;29;20511;-70
2023/03/26 04:29:03;;;;;;;6.05;4.53;;;;;;;6.88;100.00;95398.25;4956578;29;20031;-70
2023/03/26 04:31:29;;;;;;;4.68;3.35;;;;;;;6.81;100.00;95402.34;4929525;29;20091;-70
2023/03/26 04:34:24;;;;;;;4.78;2.78;;;;;;;6.72;100.00;95400.44;4955353;29;20030;-71
2023/03/26 04:36:53;;;;;;;4.18;3.42;;;;;;;6.69;100.00;95390.25;4942473;29;20051;-70
2023/03/26 04:39:22;;;;;;;7.90;3.30;;;;;;;6.67;100.00;95385.16;4957280;29;20780;-70
2023/03/26 04:41:48;;;;;;;6.57;3.45;;;;;;;6.70;100.00;95390.13;4945550;28;20457;-70
2023/03/26 04:44:15;;;;;;;7.60;3.80;;;;;;;6.73;100.00;95386.41;4941564;29;20048;-70
2023/03/26 04:46:42;;;;;;;5.03;3.72;;;;;;;6.76;100.00;95373.09;4939503;29;20031;-70
2023/03/26 04:49:08;;;;;;;5.85;3.40;;;;;;;6.85;100.00;95359.25;4952372;29;20389;-70
2023/03/26 04:51:40;;;;;;;7.55;3.38;;;;;;;6.97;100.00;95348.72;4949037;29;20439;-70
2023/03/26 04:54:06;;;;;;;4.40;3.20;;;;;;;6.87;100.00;95354.72;4942140;29;20020;-70
2023/03/26 04:56:38;;;;;;;4.18;3.72;;;;;;;6.91;100.00;95341.38;4946921;29;20531;-70
2023/03/26 04:59:04;;;;;;;6.63;3.30;;;;;;;6.73;100.00;95347.16;4955756;29;20086;-70
2023/03/26 05:01:30;;;;;;;4.38;3.50;;;;;;;6.66;100.00;95323.31;4946037;29;20683;-70
2023/03/26 05:03:59;;;;;;;4.93;3.47;;;;;;;6.58;100.00;95329.19;4943200;29;20023;-70
2023/03/26 05:06:27;;;;;;;7.28;3.70;;;;;;;6.52;100.00;95324.47;4957296;29;20019;-71
2023/03/26 05:08:53;;;;;;;4.68;3.58;;;;;;;6.51;100.00;95324.56;4927014;29;20023;-70
2023/03/26 05:11:19;;;;;;;4.25;3.58;;;;;;;6.47;100.00;95312.72;4940814;29;20079;-70
2023/03/26 05:13:45;;;;;;;5.93;3.53;;;;;;;6.51;100.00;95330.63;4942682;29;20028;-70
2023/03/26 05:16:11;;;;;;;7.13;3.95;;;;;;;6.52;100.00;95319.22;4946435;29;20101;-71
2023/03/26 05:18:37;;;;;;;4.97;3.50;;;;;;;6.57;100.00;95311.81;4929235;29;20038;-71
2023/03/26 05:21:03;;;;;;;8.90;3.30;;;;;;;6.55;100.00;95305.91;4951000;29;20035;-71
2023/03/26 05:23:29;;;;;;;3.78;3.42;;;;;;;6.52;100.00;95285.22;4954191;29;20026;-71
2023/03/26 05:25:54;;;;;;;5.13;3.30;;;;;;;6.58;100.00;95292.56;4945107;29;20082;-71
2023/03/26 05:28:23;;;;;;;4.90;3.63;;;;;;;6.56;100.00;95278.78;4948111;29;20030;-70
2023/03/26 05:30:49;;;;;;;4.38;3.83;;;;;;;6.58;100.00;95268.19;4950686;29;20381;-70
2023/03/26 05:33:16;;;;;;;4.65;3.95;;;;;;;6.62;100.00;95256.50;4944004;29;20055;-70
2023/03/26 05:35:42;;;;;;;4.13;3.70;;;;;;;6.65;100.00;95242.34;4943938;29;20083;-70
2023/03/26 05:38:07;;;;;;;4.40;3.72;;;;;;;6.55;100.00;95269.28;4953921;29;20496;-70
2023/03/26 05:40:32;;;;;;;6.95;3.50;;;;;;;6.64;100.00;95264.22;4943399;29;20054;-70
2023/03/26 05:42:58;;;;;;;3.85;3.55;;;;;;;6.72;100.00;95278.31;4956773;29;20027;-70
2023/03/26 05:45:23;;;;;;;3.53;3.22;;;;;;;6.72;100.00;95285.34;4939415;29;20019;-70
2023/03/26 05:47:50;;;;;;;6.22;3.08;;;;;;;6.67;100.00;95290.13;4949461;29;20079;-70
2023/03/26 05:50:15;;;;;;;4.93;3.28;;;;;;;6.61;100.00;95311.56;4950429;29;20032;-70
2023/03/26 05:52:41;;;;;;;5.55;3.78;;;;;;;6.52;100.00;95321.00;4951986;29;20027;-70
2023/03/26 05:55:07;;;;;;;4.00;3.60;;;;;;;6.49;100.00;95316.84;4962702;29;20034;-70
2023/03/26 05:57:34;;;;;;;5.70;3.20;;;;;;;6.55;100.00;95324.22;4958202;28;20024;-70
2023/03/26 06:00:01;;;;;;;5.18;3.40;;;;;;;6.53;100.00;95306.97;4957522;28;20518;-70
2023/03/26 06:02:28;;;;;;;3.60;3.30;;;;;;;6.54;100.00;95306.84;4958871;29;20031;-70
2023/03/26 06:04:55;;;;;;;5.22;3.85;;;;;;;6.57;100.00;95297.91;4953307;28;20039;-70
2023/03/26 06:07:21;;;;;;;5.50;3.60;;;;;;;6.72;100.00;95280.09;4962920;29;20082;-70
2023/03/26 06:09:46;;;;;;;4.30;3.90;;;;;;;6.82;100.00;95286.25;4962502;28;20032;-70
2023/03/26 06:12:13;;;;;;;5.60;4.38;;;;;;;6.72;100.00;95288.78;4962648;29;20443;-70
2023/03/26 06:14:38;;;;;;;5.13;4.25;;;;;;;6.63;100.00;95294.81;4962424;29;20090;-70
2023/03/26 06:17:04;;;;;;;6.32;3.92;;;;;;;6.54;100.00;95312.09;4954869;28;20031;-70
2023/03/26 06:19:29;;;;;;;5.60;4.45;;;;;;;6.54;100.00;95316.47;4955378;29;20027;-70
2023/03/26 06:21:55;;;;;;;5.82;4.85;;;;;;;6.72;100.00;95301.03;4958650;29;20058;-70
2023/03/26 06:24:20;;;;;;;9.75;4.57;;;;;;;6.80;100.00;95298.63;4961828;28;20035;-70
2023/03/26 06:26:46;;;;;;;6.03;4.70;;;;;;;6.76;100.00;95292.00;4957355;29;20035;-70
2023/03/26 06:29:13;;;;;;;5.53;4.70;;;;;;;6.60;100.00;95305.50;4938371;28;20031;-71
2023/03/26 06:31:39;;;;;;;4.95;4.30;;;;;;;6.53;100.00;95304.34;4962117;28;20081;-71
2023/03/26 06:34:05;;;;;;;6.50;4.10;;;;;;;6.41;100.00;95308.81;4949260;29;20062;-70
2023/03/26 06:36:30;;;;;;;5.20;4.70;;;;;;;6.37;100.00;95310.03;4956112;28;20028;-70
2023/03/26 06:38:56;;;;;;;6.50;4.25;;;;;;;6.32;100.00;95317.41;4951357;29;20059;-70
2023/03/26 06:41:22;;;;;;;4.60;3.83;;;;;;;6.30;100.00;95309.69;4961822;29;20046;-70
2023/03/26 06:43:48;;;;;;;6.78;3.90;;;;;;;6.35;100.00;95309.31;4951965;29;20106;-70
2023/03/26 06:46:13;;;;;;;5.97;3.65;;;;;;;6.29;100.00;95321.09;4961797;29;20043;-70
2023/03/26 06:48:40;;;;;;;4.10;3.70;;;;;;;6.38;100.00;95311.69;4957781;28;20063;-70
2023/03/26 06:51:06;;;;;;;4.25;3.20;;;;;;;6.54;100.00;95291.16;4962609;29;20030;-70
2023/03/26 06:53:32;;;;;;;5.90;3.83;;;;;;;6.49;100.00;95303.75;4958449;29;20106;-70
2023/03/26 06:55:57;;;;;;;7.80;4.20;;;;;;;6.47;100.00;95300.44;4961488;28;20070;-70
2023/03/26 06:58:23;;;;;;;5.32;3.92;;;;;;;6.48;100.00;95304.72;4940301;29;20035;-70
2023/03/26 07:00:52;;;;;;;4.78;4.25;;;;;;;6.61;100.00;95296.69;4961636;28;20023;-70
2023/03/26 07:03:17;;;;;;;7.63;6.90;;;;;;;6.48;100.00;95319.59;4955031;28;20440;-70
2023/03/26 07:05:43;;;;;;;7.32;5.43;;;;;;;6.65;100.00;95298.13;4954033;29;20110;-70
2023/03/26 07:08:08;;;;;;;9.35;6.25;;;;;;;6.52;100.00;95307.94;4959232;29;20023;-70
2023/03/26 07:10:34;;;;;;;8.50;5.70;;;;;;;6.46;100.00;95290.94;4958838;29;20028;-70
2023/03/26 07:12:59;;;;;;;8.20;6.60;;;;;;;6.55;100.00;95278.91;4959317;29;20027;-70
2023/03/26 07:15:27;;;;;;;7.55;6.85;;;;;;;6.67;100.00;95280.50;4958692;29;20404;-70
2023/03/26 07:17:52;;;;;;;6.97;5.65;;;;;;;6.86;100.00;95264.09;4959381;29;20407;-70
2023/03/26 07:20:18;;;;;;;5.40;4.93;;;;;;;6.86;100.00;95266.69;4958771;29;20023;-70
2023/03/26 07:22:43;;;;;;;8.60;6.45;;;;;;;6.87;100.00;95260.50;4929577;29;20103;-70
2023/03/26 07:25:10;;;;;;;9.45;6.90;;;;;;;6.64;100.00;95251.16;4946174;29;20051;-70
2023/03/26 07:27:59;;;;;;;9.35;6.38;;;;;;;6.44;100.00;95259.72;4939785;29;20027;-70
2023/03/26 07:30:46;;;;;;;6.03;4.82;;;;;;;6.43;100.00;95267.66;4953556;29;20132;-69
2023/03/26 07:33:24;;;;;;;7.43;5.53;;;;;;;6.41;100.00;95280.88;4946333;29;20039;-70
2023/03/26 07:36:19;;;;;;;6.85;4.97;;;;;;;6.43;100.00;95294.66;4952188;29;20027;-70
2023/03/26 07:39:09;;;;;;;7.07;5.80;;;;;;;6.50;100.00;95308.03;4947953;29;20039;-70
2023/03/26 07:41:54;;;;;;;6.85;5.80;;;;;;;6.45;100.00;95312.81;4958297;29;20034;-70
2023/03/26 07:44:46;;;;;;;12.15;9.70;;;;;;;6.38;100.00;95301.22;4958486;29;20629;-69
2023/03/26 07:47:27;;;;;;;28.10;18.73;;;;;;;6.38;100.00;95311.69;4953242;29;20070;-69
2023/03/26 07:49:56;;;;;;;22.05;12.00;;;;;;;6.28;100.00;95319.44;4951084;29;20031;-69
2023/03/26 07:52:22;;;;;;;22.30;11.73;;;;;;;6.28;100.00;95317.63;4952652;29;20031;-69
2023/03/26 07:54:48;;;;;;;11.55;8.57;;;;;;;6.27;100.00;95315.97;4954519;29;20049;-69
2023/03/26 07:57:37;;;;;;;8.98;7.43;;;;;;;6.26;100.00;95319.56;4953565;29;20110;-69
2023/03/26 08:00:20;;;;;;;12.50;9.93;;;;;;;6.27;100.00;95304.72;4944967;29;20031;-69
2023/03/26 08:03:10;;;;;;;40.33;21.90;;;;;;;6.28;100.00;95301.94;4948107;29;20051;-69
2023/03/26 08:05:41;;;;;;;19.38;15.95;;;;;;;6.43;100.00;95291.19;4952849;29;20035;-70
2023/03/26 08:08:23;;;;;;;21.08;15.48;;;;;;;6.41;100.00;95291.34;4950439;29;20031;-69
2023/03/26 08:11:26;;;;;;;12.95;9.38;;;;;;;6.49;100.00;95303.75;4951906;29;20078;-70
2023/03/26 08:14:13;;;;;;;5.32;4.90;;;;;;;6.58;100.00;95297.78;4956278;29;20043;-67
2023/03/26 08:16:53;;;;;;;14.80;12.10;;;;;;;6.54;100.00;95313.84;4951360;28;20031;-70
2023/03/26 08:19:44;;;;;;;15.00;8.82;;;;;;;6.62;100.00;95321.06;4949038;29;20027;-69
2023/03/26 08:22:25;;;;;;;9.90;8.02;;;;;;;6.57;100.00;95311.81;4951036;29;20596;-68
2023/03/26 08:25:28;;;;;;;11.23;8.15;;;;;;;6.61;100.00;95314.19;4952128;29;20094;-68
2023/03/26 08:28:22;;;;;;;6.90;6.40;;;;;;;6.62;100.00;95315.84;4933414;29;20179;-69
2023/03/26 08:30:47;;;;;;;7.22;6.63;;;;;;;6.70;100.00;95316.03;4953750;29;20031;-68
2023/03/26 08:33:19;;;;;;;6.38;5.45;;;;;;;6.70;100.00;95334.34;4954964;29;20042;-69
2023/03/26 08:35:45;;;;;;;6.35;5.85;;;;;;;6.75;100.00;95332.19;4951272;29;20090;-67
2023/03/26 08:38:13;;;;;;;7.53;6.60;;;;;;;6.71;100.00;95342.06;4954117;29;20042;-69
2023/03/26 08:40:59;;;;;;;8.18;6.03;;;;;;;6.68;100.00;95339.72;4957100;29;20075;-68
2023/03/26 08:43:40;;;;;;;8.27;6.88;;;;;;;6.66;100.00;95344.25;4951256;29;20357;-68
2023/03/26 08:46:33;;;;;;;7.97;7.18;;;;;;;6.62;100.00;95327.13;4954516;29;20039;-69
2023/03/26 08:48:59;;;;;;;9.02;8.20;;;;;;;6.58;100.00;95308.25;4936793;29;20091;-69
2023/03/26 08:51:50;;;;;;;7.63;6.93;;;;;;;6.61;100.00;95299.31;4953156;29;20510;-67
2023/03/26 08:54:30;;;;;;;12.00;9.05;;;;;;;6.79;100.00;95290.88;4952419;29;20030;-69
2023/03/26 08:57:09;;;;;;;8.60;6.57;;;;;;;6.84;100.00;95284.31;4947889;29;20031;-68
2023/03/26 08:59:49;;;;;;;11.07;10.05;;;;;;;6.72;100.00;95282.72;4950062;29;20038;-69
2023/03/26 09:02:20;;;;;;;9.95;9.00;;;;;;;6.86;100.00;95274.56;4946186;29;20031;-68
2023/03/26 09:05:29;;;;;;;9.90;8.90;;;;;;;6.76;100.00;95278.06;4949261;29;20023;-69
2023/03/26 09:07:54;;;;;;;9.65;8.73;;;;;;;6.76;100.00;95284.16;4910564;29;20039;-68
2023/03/26 09:10:31;;;;;;;8.13;6.88;;;;;;;6.80;100.00;95279.47;4948835;29;20034;-68
2023/03/26 09:13:13;;;;;;;7.93;7.13;;;;;;;6.78;100.00;95287.47;4954457;29;20037;-68
2023/03/26 09:15:41;;;;;;;6.43;5.93;;;;;;;7.12;100.00;95297.69;4947775;29;20027;-68
2023/03/26 09:18:07;;;;;;;11.27;10.38;;;;;;;7.02;100.00;95295.00;4951315;29;20051;-68
2023/03/26 09:20:35;;;;;;;8.98;8.07;;;;;;;7.24;100.00;95308.91;4951241;29;20082;-68
2023/03/26 09:23:30;;;;;;;6.68;6.07;;;;;;;7.34;100.00;95305.50;4953588;29;20102;-68
2023/03/26 09:25:58;;;;;;;6.05;5.53;;;;;;;7.26;100.00;95300.94;4930421;28;20070;-69
2023/03/26 09:28:45;;;;;;;6.53;4.70;;;;;;;6.98;100.00;95304.09;4944527;29;20114;-68
2023/03/26 09:31:48;;;;;;;5.57;5.03;;;;;;;6.98;100.00;95318.97;4945589;29;20165;-68
2023/03/26 09:34:13;;;;;;;5.70;5.07;;;;;;;6.97;100.00;95327.78;4950107;29;20110;-70
2023/03/26 09:37:04;;;;;;;6.95;5.40;;;;;;;7.05;100.00;95337.59;4950910;29;20106;-68
2023/03/26 09:39:30;;;;;;;6.07;5.53;;;;;;;7.20;100.00;95341.56;4950493;29;20167;-69
2023/03/26 09:42:04;;;;;;;8.15;7.32;;;;;;;6.95;100.00;95340.16;4950646;29;20118;-68
2023/03/26 09:44:35;;;;;;;9.90;8.90;;;;;;;6.88;100.00;95342.47;4952679;29;20035;-66
2023/03/26 09:47:21;;;;;;;14.32;10.70;;;;;;;6.84;100.00;95336.66;4951659;29;20519;-67
2023/03/26 09:50:14;;;;;;;8.23;7.28;;;;;;;6.84;100.00;95328.81;4947647;29;20023;-66
2023/03/26 09:52:57;;;;;;;11.02;9.93;;;;;;;6.96;100.00;95315.63;4951490;29;20046;-68
2023/03/26 09:55:23;;;;;;;11.23;9.98;;;;;;;6.99;100.00;95320.63;4950316;29;20023;-68
2023/03/26 09:57:53;;;;;;;13.88;12.43;;;;;;;7.01;100.00;95321.34;4948768;29;20549;-68
2023/03/26 10:00:33;;;;;;;9.77;8.95;;;;;;;6.90;100.00;95324.00;4947479;29;20054;-68
2023/03/26 10:03:07;;;;;;;8.52;7.55;;;;;;;7.01;100.00;95318.72;4953344;29;20038;-67
2023/03/26 10:05:40;;;;;;;12.23;10.18;;;;;;;6.87;100.00;95320.69;4952539;29;20035;-67
2023/03/26 10:08:19;;;;;;;9.95;8.93;;;;;;;6.95;100.00;95311.38;4954092;29;20031;-67
2023/03/26 10:11:05;;;;;;;7.93;7.20;;;;;;;6.86;100.00;95323.47;4947204;29;20091;-67
2023/03/26 10:14:06;;;;;;;6.57;5.90;;;;;;;6.92;100.00;95319.47;4951265;29;20039;-67
2023/03/26 10:16:54;;;;;;;5.65;5.15;;;;;;;6.88;100.00;95319.72;4953916;29;20031;-66
2023/03/26 10:19:37;;;;;;;4.80;4.40;;;;;;;6.94;100.00;95318.41;4953754;29;20443;-67
2023/03/26 10:22:34;;;;;;;6.22;5.55;;;;;;;7.01;100.00;95321.34;4951489;29;20075;-66
2023/03/26 10:25:17;;;;;;;11.90;10.75;;;;;;;6.98;100.00;95326.84;4897966;29;20051;-66
2023/03/26 10:27:48;;;;;;;10.00;9.05;;;;;;;7.32;100.00;95300.41;4948889;29;20020;-66
2023/03/26 10:30:35;;;;;;;11.70;10.73;;;;;;;7.16;100.00;95308.75;4952638;29;20124;-65
2023/03/26 10:33:25;;;;;;;9.23;8.43;;;;;;;7.17;100.00;95307.78;4949182;29;20059;-66
2023/03/26 10:36:20;;;;;;;6.50;6.00;;;;;;;7.23;100.00;95290.72;4951196;29;20054;-66
2023/03/26 10:39:02;;;;;;;7.18;6.45;;;;;;;7.31;100.00;95270.78;4947317;28;20043;-67
2023/03/26 10:41:56;;;;;;;8.55;7.85;;;;;;;7.36;100.00;95267.75;4955610;29;20027;-67
2023/03/26 10:44:24;;;;;;;8.77;7.97;;;;;;;7.35;100.00;95253.00;4958340;29;20530;-66
2023/03/26 10:47:10;;;;;;;9.75;8.88;;;;;;;7.37;100.00;95252.88;4953900;29;20511;-65
2023/03/26 10:49:48;;;;;;;9.27;8.38;;;;;;;7.29;100.00;95243.91;4935692;29;20034;-66
2023/03/26 10:52:39;;;;;;;11.07;10.07;;;;;;;7.26;100.00;95238.91;4955487;29;20027;-66
2023/03/26 10:55:25;;;;;;;8.23;7.55;;;;;;;7.23;100.00;95238.34;4945514;29;20489;-67
2023/03/26 10:58:08;;;;;;;9.07;8.30;;;;;;;7.25;100.00;95223.34;4951125;29;20047;-68
2023/03/26 11:00:42;;;;;;;7.22;6.63;;;;;;;7.24;100.00;95214.63;4950960;29;20389;-67
2023/03/26 11:03:28;;;;;;;6.32;5.82;;;;;;;7.36;100.00;95217.97;4953230;29;20476;-66
2023/03/26 11:06:15;;;;;;;5.35;4.32;;;;;;;7.40;100.00;95206.28;4951605;29;20563;-67
2023/03/26 11:09:07;;;;;;;5.28;4.88;;;;;;;7.68;100.00;95197.78;4948937;29;20777;-67
2023/03/26 11:12:02;;;;;;;8.50;7.78;;;;;;;8.02;100.00;95187.72;4955745;29;20516;-67
2023/03/26 11:14:40;;;;;;;7.10;5.82;;;;;;;8.26;100.00;95183.03;4958349;29;20710;-67
2023/03/26 11:17:19;;;;;;;6.13;5.63;;;;;;;8.40;100.00;95181.75;4956256;29;20039;-67
2023/03/26 11:20:16;;;;;;;5.05;4.55;;;;;;;8.31;100.00;95180.81;4953072;29;20027;-67
2023/03/26 11:22:47;;;;;;;;;;;;;;;8.18;100.00;95183.72;4954768;29;20034;-67
2023/03/26 11:25:36;;;;;;;17.08;15.38;;;;;;;8.10;100.00;95194.09;4952488;29;20439;-66
2023/03/26 11:28:28;;;;;;;9.40;7.82;;;;;;;7.88;100.00;95196.03;4955882;29;20031;-67
2023/03/26 11:30:59;;;;;;;7.90;7.20;;;;;;;7.59;100.00;95218.59;4903016;29;20036;-68
2023/03/26 11:33:41;;;;;;;7.60;6.90;;;;;;;7.59;100.00;95215.13;4953490;29;20055;-65
2023/03/26 11:36:18;;;;;;;9.07;8.27;;;;;;;7.55;100.00;95211.97;4953246;29;20079;-65
2023/03/26 11:38:48;;;;;;;6.53;6.03;;;;;;;7.52;100.00;95225.34;4950771;29;20645;-65
2023/03/26 11:41:24;;;;;;;10.15;9.32;;;;;;;7.77;100.00;95198.75;4954570;29;20158;-65
2023/03/26 11:43:59;;;;;;;11.35;10.45;;;;;;;7.83;100.00;95198.19;4953554;29;20085;-68
2023/03/26 11:46:25;;;;;;;8.25;6.68;;;;;;;8.03;100.00;95204.28;4949026;29;20027;-67
2023/03/26 11:49:05;;;;;;;7.20;6.60;;;;;;;8.22;100.00;95197.41;4952812;29;20047;-67
2023/03/26 11:51:33;;;;;;;8.25;7.50;;;;;;;8.14;100.00;95205.94;4951708;29;20016;-66
2023/03/26 11:54:00;;;;;;;7.95;7.13;;;;;;;8.07;100.00;95202.22;4948834;29;20614;-64
2023/03/26 11:56:44;;;;;;;6.65;6.00;;;;;;;8.04;100.00;95190.22;4952394;29;20026;-65
2023/03/26 11:59:11;;;;;;;6.03;5.50;;;;;;;8.15;100.00;95189.25;4948967;29;20042;-66